Time;durP1;ratioP1;P1;durP2;ratioP2;P2;SDS_P1;SDS_P2;PMS_P1;PMS_P2;Temp;Humidity;BMP_temperature;BMP_pressure;BME280_temperature;BME280_humidity;BME280_pressure;Samples;Min_cycle;Max_cycle;Signal;HPM_P1;HPM_P2
2023/05/31 00:01:06;;;;;;;;;;;17.30;69.30;;;;;;5029852;28;20465;-71
2023/05/31 00:03:33;;;;;;;;;;;17.30;69.20;;;;;;5028823;28;19944;-71
2023/05/31 00:06:01;;;;;;;;;;;17.20;68.80;;;;;;5008655;28;19925;-71
2023/05/31 00:08:28;;;;;;;;;;;17.20;68.70;;;;;;5024470;28;19952;-71
2023/05/31 00:10:57;;;;;;;;;;;17.20;69.10;;;;;;5029597;28;19925;-71
2023/05/31 00:13:24;;;;;;;;;;;17.10;68.80;;;;;;5029730;28;20486;-73
2023/05/31 00:15:50;;;;;;;;;;;17.10;69.20;;;;;;5022848;28;20427;-71
2023/05/31 00:18:18;;;;;;;;;;;17.10;68.70;;;;;;5029039;28;19960;-71
2023/05/31 00:20:44;;;;;;;;;;;17.10;68.50;;;;;;5025790;28;19965;-71
2023/05/31 00:23:11;;;;;;;;;;;17.00;69.00;;;;;;5029181;28;19929;-71
2023/05/31 00:25:38;;;;;;;;;;;17.00;68.90;;;;;;5022654;28;19929;-71
2023/05/31 00:28:06;;;;;;;;;;;16.90;68.60;;;;;;5028790;28;19929;-71
2023/05/31 00:30:33;;;;;;;;;;;16.90;68.90;;;;;;5024038;28;20291;-72
2023/05/31 00:33:00;;;;;;;;;;;16.90;68.40;;;;;;5011522;28;19987;-71
2023/05/31 00:35:27;;;;;;;;;;;16.90;68.80;;;;;;5010728;28;19979;-71
2023/05/31 00:37:53;;;;;;;;;;;16.80;68.50;;;;;;5025741;28;21832;-71
2023/05/31 00:40:20;;;;;;;;;;;16.80;68.60;;;;;;5026911;28;19929;-71
2023/05/31 00:42:47;;;;;;;;;;;16.80;68.60;;;;;;5029566;28;19925;-71
2023/05/31 00:45:15;;;;;;;;;;;16.80;68.70;;;;;;5011858;28;19929;-71
2023/05/31 00:47:42;;;;;;;;;;;16.70;68.10;;;;;;5024920;28;19960;-71
2023/05/31 00:50:10;;;;;;;;;;;16.70;68.30;;;;;;5012515;28;19961;-71
2023/05/31 00:52:36;;;;;;;;;;;16.70;69.00;;;;;;5026085;28;19929;-71
2023/05/31 00:55:03;;;;;;;;;;;16.60;68.40;;;;;;5029308;28;19925;-71
2023/05/31 00:57:31;;;;;;;;;;;16.60;68.60;;;;;;5023093;28;19925;-71
2023/05/31 00:59:58;;;;;;;;;;;16.60;68.70;;;;;;5026148;28;19939;-71
2023/05/31 01:02:26;;;;;;;;;;;16.60;68.30;;;;;;5030986;28;19929;-71
2023/05/31 01:04:53;;;;;;;;;;;16.50;68.80;;;;;;5023445;28;20392;-70
2023/05/31 01:07:20;;;;;;;;;;;16.50;68.30;;;;;;5032467;28;19972;-73
2023/05/31 01:09:46;;;;;;;;;;;16.50;68.40;;;;;;5032524;28;19929;-73
2023/05/31 01:12:16;;;;;;;;;;;16.40;68.80;;;;;;5029008;28;19972;-73
2023/05/31 01:14:51;;;;;;;;;;;16.40;68.90;;;;;;5024401;28;20336;-72
2023/05/31 01:17:22;;;;;;;;;;;16.40;68.80;;;;;;5014384;28;19992;-72
2023/05/31 01:19:53;;;;;;;;;;;16.40;69.00;;;;;;5015184;28;19980;-72
2023/05/31 01:22:37;;;;;;;;;;;16.40;68.70;;;;;;5011060;28;19931;-72
2023/05/31 01:25:13;;;;;;;;;;;16.30;68.70;;;;;;5013950;28;20307;-73
2023/05/31 01:27:42;;;;;;;;;;;16.30;68.90;;;;;;5031271;28;20056;-72
2023/05/31 01:30:10;;;;;;;;;;;16.30;69.00;;;;;;5013955;28;19932;-72
2023/05/31 01:32:37;;;;;;;;;;;16.30;69.20;;;;;;5010253;28;19967;-73
2023/05/31 01:35:04;;;;;;;;;;;16.20;69.20;;;;;;5014501;28;19963;-73
2023/05/31 01:37:31;;;;;;;;;;;16.20;69.00;;;;;;5031725;28;19964;-73
2023/05/31 01:39:58;;;;;;;;;;;16.20;69.20;;;;;;5029687;28;20445;-73
2023/05/31 01:42:25;;;;;;;;;;;16.20;69.40;;;;;;5014649;28;19929;-72
2023/05/31 01:44:54;;;;;;;;;;;16.20;69.40;;;;;;5015050;28;19980;-73
2023/05/31 01:47:21;;;;;;;;;;;16.10;69.50;;;;;;5029563;28;19929;-72
2023/05/31 01:49:48;;;;;;;;;;;16.10;69.50;;;;;;5011283;28;20020;-72
2023/05/31 01:52:16;;;;;;;;;;;16.10;69.50;;;;;;5031053;28;19933;-73
2023/05/31 01:54:43;;;;;;;;;;;16.00;69.50;;;;;;5011623;28;20450;-72
2023/05/31 01:57:10;;;;;;;;;;;16.00;69.40;;;;;;5009186;28;19937;-72
2023/05/31 01:59:40;;;;;;;;;;;16.00;69.80;;;;;;5012047;28;19929;-72
2023/05/31 02:02:10;;;;;;;;;;;16.00;70.00;;;;;;5006578;28;19956;-73
2023/05/31 02:04:37;;;;;;;;;;;16.00;69.90;;;;;;5010992;28;19925;-73
2023/05/31 02:07:04;;;;;;;;;;;16.00;70.00;;;;;;5027595;28;19925;-73
2023/05/31 02:09:31;;;;;;;;;;;15.90;70.20;;;;;;5031785;28;19980;-73
2023/05/31 02:11:58;;;;;;;;;;;15.90;70.00;;;;;;5032066;28;19925;-73
2023/05/31 02:14:25;;;;;;;;;;;15.90;70.30;;;;;;5011262;28;19940;-73
2023/05/31 02:16:54;;;;;;;;;;;15.90;70.20;;;;;;5025035;28;19979;-73
2023/05/31 02:19:25;;;;;;;;;;;15.90;70.20;;;;;;5012906;28;19932;-73
2023/05/31 02:21:53;;;;;;;;;;;15.80;70.50;;;;;;5016734;28;19932;-73
2023/05/31 02:24:20;;;;;;;;;;;15.80;70.50;;;;;;5028200;28;20368;-73
2023/05/31 02:26:47;;;;;;;;;;;15.80;70.50;;;;;;5029810;28;19979;-72
2023/05/31 02:29:13;;;;;;;;;;;15.80;70.30;;;;;;5030411;28;20107;-71
2023/05/31 02:31:40;;;;;;;;;;;15.80;71.50;;;;;;5027472;28;20399;-71
2023/05/31 02:34:08;;;;;;;;;;;15.80;70.80;;;;;;5030802;28;19983;-71
2023/05/31 02:36:36;;;;;;;;;;;15.70;70.80;;;;;;5031315;28;20452;-71
2023/05/31 02:39:03;;;;;;;;;;;15.70;70.80;;;;;;5008949;28;19929;-72
2023/05/31 02:41:30;;;;;;;;;;;15.70;70.90;;;;;;5031512;28;19928;-71
2023/05/31 02:43:57;;;;;;;;;;;15.70;71.20;;;;;;5030814;28;19932;-72
2023/05/31 02:46:23;;;;;;;;;;;15.60;71.00;;;;;;5009951;28;19929;-71
2023/05/31 02:48:50;;;;;;;;;;;15.60;71.00;;;;;;5030941;28;19925;-71
2023/05/31 02:51:20;;;;;;;;;;;15.60;71.10;;;;;;5012575;28;19925;-72
2023/05/31 02:54:07;;;;;;;;;;;15.60;71.10;;;;;;5027100;28;19948;-70
2023/05/31 02:56:36;;;;;;;;;;;15.60;71.10;;;;;;5010188;28;20003;-70
2023/05/31 02:59:15;;;;;;;;;;;15.60;71.00;;;;;;5012077;28;19925;-70
2023/05/31 03:01:53;;;;;;;;;;;15.50;71.20;;;;;;5030442;28;19929;-71
2023/05/31 03:04:52;;;;;;;;;;;15.50;71.10;;;;;;5001771;28;19925;-70
2023/05/31 03:07:19;;;;;;;;;;;15.50;71.60;;;;;;5017836;28;19933;-70
2023/05/31 03:09:47;;;;;;;;;;;15.50;71.60;;;;;;5012679;28;19964;-71
2023/05/31 03:12:14;;;;;;;;;;;15.40;71.20;;;;;;5025521;28;19950;-72
2023/05/31 03:14:42;;;;;;;;;;;15.50;71.70;;;;;;5018730;28;19925;-71
2023/05/31 03:17:09;;;;;;;;;;;15.40;71.60;;;;;;5028802;28;20012;-71
2023/05/31 03:19:40;;;;;;;;;;;15.40;71.70;;;;;;5015363;28;19929;-71
2023/05/31 03:22:07;;;;;;;;;;;15.40;71.90;;;;;;5009683;28;19932;-71
2023/05/31 03:24:43;;;;;;;;;;;15.40;71.80;;;;;;5027393;28;20437;-70
2023/05/31 03:27:11;;;;;;;;;;;15.30;72.50;;;;;;5024533;28;20017;-71
2023/05/31 03:29:39;;;;;;;;;;;15.40;72.00;;;;;;5024497;28;20392;-70
2023/05/31 03:32:08;;;;;;;;;;;15.40;72.10;;;;;;5011064;28;19925;-71
2023/05/31 03:34:35;;;;;;;;;;;15.30;71.90;;;;;;5028599;28;19925;-71
2023/05/31 03:37:02;;;;;;;;;;;15.30;72.20;;;;;;5012093;28;19933;-71
2023/05/31 03:39:42;;;;;;;;;;;15.30;72.20;;;;;;5010124;28;19929;-71
2023/05/31 03:42:13;;;;;;;;;;;15.20;72.10;;;;;;5008174;28;19929;-71
2023/05/31 03:44:40;;;;;;;;;;;15.20;72.30;;;;;;5012885;28;19947;-71
2023/05/31 03:47:07;;;;;;;;;;;15.20;72.40;;;;;;5012987;28;19925;-71
2023/05/31 03:49:36;;;;;;;;;;;15.20;72.40;;;;;;5010835;28;19987;-70
2023/05/31 03:52:03;;;;;;;;;;;15.20;72.50;;;;;;5011641;28;19940;-71
2023/05/31 03:54:30;;;;;;;;;;;15.20;72.60;;;;;;5003043;28;19983;-70
2023/05/31 03:56:57;;;;;;;;;;;15.20;72.50;;;;;;5008600;28;20024;-70
2023/05/31 03:59:25;;;;;;;;;;;15.10;72.50;;;;;;5013884;28;19929;-71
2023/05/31 04:01:52;;;;;;;;;;;15.10;72.40;;;;;;5011413;28;20358;-71
2023/05/31 04:04:18;;;;;;;;;;;15.10;72.70;;;;;;5026758;28;20005;-71
2023/05/31 04:06:47;;;;;;;;;;;15.10;72.70;;;;;;5006645;28;20023;-71
2023/05/31 04:09:15;;;;;;;;;;;15.10;72.60;;;;;;5014881;28;20643;-71
2023/05/31 04:11:42;;;;;;;;;;;15.00;72.60;;;;;;5014915;28;19925;-71
2023/05/31 04:14:09;;;;;;;;;;;15.00;72.80;;;;;;5008865;28;20360;-71
2023/05/31 04:16:37;;;;;;;;;;;15.00;72.80;;;;;;5013163;28;19976;-71
2023/05/31 04:19:05;;;;;;;;;;;15.00;73.10;;;;;;5009408;28;19933;-70
2023/05/31 04:21:32;;;;;;;;;;;15.00;73.10;;;;;;5024472;28;20403;-70
2023/05/31 04:24:01;;;;;;;;;;;14.90;72.90;;;;;;5007620;28;19973;-70
2023/05/31 04:26:29;;;;;;;;;;;15.00;73.10;;;;;;5010526;28;20303;-72
2023/05/31 04:28:57;;;;;;;;;;;14.90;73.00;;;;;;5010511;28;19929;-71
2023/05/31 04:31:25;;;;;;;;;;;14.90;73.20;;;;;;5011136;28;19979;-71
2023/05/31 04:33:56;;;;;;;;;;;14.90;73.40;;;;;;5023348;28;19929;-71
2023/05/31 04:36:24;;;;;;;;;;;14.90;73.60;;;;;;5005898;28;19929;-71
2023/05/31 04:38:55;;;;;;;;;;;14.90;73.70;;;;;;5015202;28;19925;-71
2023/05/31 04:41:28;;;;;;;;;;;14.90;73.60;;;;;;5032386;28;20526;-72
2023/05/31 04:43:56;;;;;;;;;;;14.90;73.70;;;;;;5004366;28;19925;-71
2023/05/31 04:46:24;;;;;;;;;;;14.90;73.60;;;;;;5016106;28;20307;-71
2023/05/31 04:48:57;;;;;;;;;;;14.90;73.90;;;;;;5014837;28;20023;-71
2023/05/31 04:51:24;;;;;;;;;;;14.90;73.90;;;;;;5009914;28;19995;-72
2023/05/31 04:53:51;;;;;;;;;;;14.90;74.70;;;;;;5015981;28;19925;-71
2023/05/31 04:56:21;;;;;;;;;;;14.90;74.10;;;;;;5014472;28;19925;-72
2023/05/31 04:58:48;;;;;;;;;;;14.90;74.10;;;;;;5006689;28;20400;-72
2023/05/31 05:01:15;;;;;;;;;;;14.90;74.10;;;;;;5031894;28;19932;-72
2023/05/31 05:04:00;;;;;;;;;;;14.90;74.20;;;;;;5013522;28;19965;-72
2023/05/31 05:06:29;;;;;;;;;;;14.90;74.20;;;;;;5014891;28;19929;-71
2023/05/31 05:08:56;;;;;;;;;;;14.90;74.30;;;;;;5011825;28;19925;-72
2023/05/31 05:11:24;;;;;;;;;;;14.90;74.40;;;;;;5005712;28;19975;-72
2023/05/31 05:13:52;;;;;;;;;;;14.90;74.60;;;;;;5032462;28;20287;-72
2023/05/31 05:16:19;;;;;;;;;;;14.80;74.40;;;;;;5029348;28;20007;-70
2023/05/31 05:18:45;;;;;;;;;;;14.90;74.40;;;;;;5013031;28;19933;-72
2023/05/31 05:21:14;;;;;;;;;;;14.80;74.50;;;;;;5015301;28;19933;-72
2023/05/31 05:23:42;;;;;;;;;;;14.90;74.50;;;;;;5012406;28;19987;-72
2023/05/31 05:26:10;;;;;;;;;;;14.90;75.10;;;;;;5026711;28;19976;-72
2023/05/31 05:28:36;;;;;;;;;;;14.90;74.90;;;;;;5029367;28;20387;-71
2023/05/31 05:31:04;;;;;;;;;;;14.80;75.70;;;;;;5014943;28;19925;-72
2023/05/31 05:33:35;;;;;;;;;;;14.90;75.60;;;;;;5025820;28;20368;-72
2023/05/31 05:36:04;;;;;;;;;;;14.90;75.60;;;;;;5029281;28;19969;-72
2023/05/31 05:38:33;;;;;;;;;;;14.90;76.00;;;;;;5014502;28;20016;-72
2023/05/31 05:41:00;;;;;;;;;;;14.90;75.80;;;;;;5013474;28;19925;-72
2023/05/31 05:43:28;;;;;;;;;;;14.90;75.80;;;;;;5027970;28;19929;-72
2023/05/31 05:46:09;;;;;;;;;;;14.90;76.20;;;;;;5012612;28;19972;-71
2023/05/31 05:48:36;;;;;;;;;;;14.90;76.00;;;;;;5013187;28;19983;-72
2023/05/31 05:51:03;;;;;;;;;;;14.90;75.90;;;;;;5011547;28;19968;-72
2023/05/31 05:53:31;;;;;;;;;;;14.90;76.10;;;;;;5012114;28;19925;-71
2023/05/31 05:55:59;;;;;;;;;;;14.90;76.20;;;;;;5014171;28;19988;-72
2023/05/31 05:58:32;;;;;;;;;;;14.90;76.20;;;;;;5006457;28;19952;-72
2023/05/31 06:01:36;;;;;;;;;;;15.00;76.70;;;;;;5009881;28;19944;-71
2023/05/31 06:04:05;;;;;;;;;;;15.00;76.60;;;;;;5013898;28;19961;-71
2023/05/31 06:06:32;;;;;;;;;;;15.00;76.60;;;;;;5030465;28;19976;-72
2023/05/31 06:08:59;;;;;;;;;;;15.00;76.70;;;;;;5029967;28;20399;-72
2023/05/31 06:11:28;;;;;;;;;;;15.00;76.70;;;;;;5010898;28;19925;-72
2023/05/31 06:13:58;;;;;;;;;;;15.00;77.20;;;;;;5030378;28;19933;-71
2023/05/31 06:16:30;;;;;;;;;;;15.10;77.30;;;;;;5026192;28;19929;-71
2023/05/31 06:18:57;;;;;;;;;;;15.10;77.40;;;;;;5026177;28;19929;-72
2023/05/31 06:21:24;;;;;;;;;;;15.10;77.60;;;;;;5021214;28;19940;-71
2023/05/31 06:23:51;;;;;;;;;;;15.10;77.50;;;;;;5013914;28;19969;-72
2023/05/31 06:26:18;;;;;;;;;;;15.10;77.70;;;;;;5007726;28;19969;-71
2023/05/31 06:28:46;;;;;;;;;;;15.20;77.90;;;;;;5010247;28;19925;-72
2023/05/31 06:31:35;;;;;;;;;;;15.20;78.10;;;;;;5030675;28;20387;-72
2023/05/31 06:34:03;;;;;;;;;;;15.20;78.20;;;;;;5011039;28;19929;-71
2023/05/31 06:36:30;;;;;;;;;;;15.20;78.50;;;;;;5027421;28;20411;-72
2023/05/31 06:38:58;;;;;;;;;;;15.30;78.70;;;;;;5009923;28;19932;-72
2023/05/31 06:41:25;;;;;;;;;;;15.30;78.90;;;;;;5004084;28;19987;-72
2023/05/31 06:43:53;;;;;;;;;;;15.30;78.90;;;;;;5015954;28;19952;-72
2023/05/31 06:46:40;;;;;;;;;;;15.30;79.00;;;;;;5010639;28;19925;-72
2023/05/31 06:49:27;;;;;;;;;;;15.30;79.10;;;;;;5030973;28;19925;-72
2023/05/31 06:52:13;;;;;;;;;;;15.40;79.50;;;;;;5029763;28;19932;-71
2023/05/31 06:54:58;;;;;;;;;;;15.40;79.60;;;;;;5030329;28;20296;-72
2023/05/31 06:57:25;;;;;;;;;;;15.40;79.50;;;;;;5029430;28;19936;-72
2023/05/31 06:59:54;;;;;;;;;;;15.40;79.50;;;;;;5009061;28;20403;-72
2023/05/31 07:02:21;;;;;;;;;;;15.50;79.70;;;;;;5024215;28;19925;-72
2023/05/31 07:04:48;;;;;;;;;;;15.50;79.70;;;;;;5029617;28;19931;-72
2023/05/31 07:07:15;;;;;;;;;;;15.50;79.90;;;;;;5029203;28;20288;-71
2023/05/31 07:09:42;;;;;;;;;;;15.50;79.90;;;;;;5009267;28;19926;-72
2023/05/31 07:12:09;;;;;;;;;;;15.50;79.90;;;;;;5012695;28;19925;-71
2023/05/31 07:14:36;;;;;;;;;;;15.60;80.00;;;;;;5009943;28;19940;-71
2023/05/31 07:17:04;;;;;;;;;;;15.60;80.10;;;;;;5023604;28;19925;-72
2023/05/31 07:19:32;;;;;;;;;;;15.60;80.00;;;;;;5027801;28;19929;-71
2023/05/31 07:21:59;;;;;;;;;;;15.70;80.30;;;;;;5012179;28;19925;-71
2023/05/31 07:24:25;;;;;;;;;;;15.70;80.40;;;;;;5030054;28;20043;-72
2023/05/31 07:26:52;;;;;;;;;;;15.70;80.40;;;;;;5007267;28;20028;-72
2023/05/31 07:29:19;;;;;;;;;;;15.70;80.60;;;;;;5009797;28;20020;-71
2023/05/31 07:31:46;;;;;;;;;;;15.70;80.60;;;;;;5029654;28;19983;-72
2023/05/31 07:34:14;;;;;;;;;;;15.80;81.00;;;;;;5029750;28;20311;-72
2023/05/31 07:36:41;;;;;;;;;;;15.80;80.90;;;;;;5008189;28;20020;-71
2023/05/31 07:39:10;;;;;;;;;;;15.80;80.90;;;;;;5029806;28;20458;-72
2023/05/31 07:41:37;;;;;;;;;;;15.80;81.00;;;;;;5029854;28;19925;-72
2023/05/31 07:44:05;;;;;;;;;;;15.90;81.00;;;;;;5029392;28;19931;-71
2023/05/31 07:46:32;;;;;;;;;;;15.90;81.00;;;;;;5026773;28;20315;-72
2023/05/31 07:49:01;;;;;;;;;;;15.90;81.00;;;;;;5027134;28;20480;-71
2023/05/31 07:51:31;;;;;;;;;;;15.90;80.90;;;;;;5029836;28;20362;-72
2023/05/31 07:53:58;;;;;;;;;;;15.90;81.10;;;;;;5028903;28;19936;-71
2023/05/31 07:56:25;;;;;;;;;;;15.90;80.90;;;;;;5025867;28;20443;-72
2023/05/31 07:58:52;;;;;;;;;;;16.00;80.80;;;;;;5028813;28;19925;-71
2023/05/31 08:01:19;;;;;;;;;;;16.00;80.80;;;;;;5021702;28;20019;-72
2023/05/31 08:03:46;;;;;;;;;;;16.00;81.20;;;;;;5026356;28;20459;-72
2023/05/31 08:06:13;;;;;;;;;;;16.00;81.20;;;;;;5029728;28;19925;-71
2023/05/31 08:08:42;;;;;;;;;;;16.00;81.00;;;;;;5027833;28;19928;-72
2023/05/31 08:11:08;;;;;;;;;;;16.00;81.10;;;;;;5029814;28;20023;-71
2023/05/31 08:13:35;;;;;;;;;;;16.00;81.00;;;;;;5024675;28;20401;-71
2023/05/31 08:16:02;;;;;;;;;;;16.10;81.10;;;;;;5030127;28;19925;-72
2023/05/31 08:18:29;;;;;;;;;;;16.10;81.20;;;;;;5028362;28;19935;-71
2023/05/31 08:20:56;;;;;;;;;;;16.10;81.10;;;;;;5025964;28;20020;-71
2023/05/31 08:23:23;;;;;;;;;;;16.10;81.20;;;;;;5029325;28;19940;-71
2023/05/31 08:25:53;;;;;;;;;;;16.10;81.20;;;;;;5025940;28;20020;-71
2023/05/31 08:28:19;;;;;;;;;;;16.10;81.10;;;;;;5027409;28;19929;-72
2023/05/31 08:30:48;;;;;;;;;;;16.20;81.30;;;;;;5024129;28;19925;-72
2023/05/31 08:33:15;;;;;;;;;;;16.20;81.40;;;;;;5029337;28;19929;-71
2023/05/31 08:35:41;;;;;;;;;;;16.20;81.50;;;;;;5011266;28;19975;-71
2023/05/31 08:38:08;;;;;;;;;;;16.20;81.50;;;;;;5025765;28;20028;-71
2023/05/31 08:40:35;;;;;;;;;;;16.20;81.40;;;;;;5028845;28;19951;-71
2023/05/31 08:43:07;;;;;;;;;;;16.30;81.70;;;;;;5025920;28;19926;-72
2023/05/31 08:45:35;;;;;;;;;;;16.30;81.60;;;;;;5006361;28;19945;-71
2023/05/31 08:48:04;;;;;;;;;;;16.30;81.60;;;;;;5024276;28;20398;-71
2023/05/31 08:50:32;;;;;;;;;;;16.30;81.70;;;;;;5028768;28;19929;-72
2023/05/31 08:52:59;;;;;;;;;;;16.40;81.90;;;;;;5028120;28;20021;-71
2023/05/31 08:55:26;;;;;;;;;;;16.40;81.50;;;;;;5026152;28;19976;-71
2023/05/31 08:57:53;;;;;;;;;;;16.40;81.50;;;;;;5024001;28;20040;-71
2023/05/31 09:00:22;;;;;;;;;;;16.40;81.20;;;;;;5022656;28;20396;-71
2023/05/31 09:02:50;;;;;;;;;;;16.40;81.30;;;;;;5007954;28;19932;-71
2023/05/31 09:05:17;;;;;;;;;;;16.50;82.20;;;;;;5029170;28;19987;-71
2023/05/31 09:07:44;;;;;;;;;;;16.50;81.50;;;;;;5028685;28;19933;-71
2023/05/31 09:10:13;;;;;;;;;;;16.50;81.30;;;;;;5027927;28;20674;-71
2023/05/31 09:12:40;;;;;;;;;;;16.60;81.40;;;;;;5025210;28;19925;-71
2023/05/31 09:15:08;;;;;;;;;;;16.60;81.50;;;;;;5025153;28;19985;-71
2023/05/31 09:17:36;;;;;;;;;;;16.60;81.50;;;;;;5024060;28;19972;-70
2023/05/31 09:20:03;;;;;;;;;;;16.70;81.40;;;;;;5006110;28;20023;-70
2023/05/31 09:22:30;;;;;;;;;;;16.70;81.40;;;;;;5029698;28;19987;-71
2023/05/31 09:24:57;;;;;;;;;;;16.70;81.40;;;;;;5031949;28;20008;-71
2023/05/31 09:27:24;;;;;;;;;;;16.70;81.40;;;;;;5014116;28;19987;-71
2023/05/31 09:29:52;;;;;;;;;;;16.70;81.40;;;;;;5028601;28;19925;-71
2023/05/31 09:32:19;;;;;;;;;;;16.80;81.60;;;;;;5032389;28;19929;-71
2023/05/31 09:34:48;;;;;;;;;;;16.70;81.50;;;;;;5029555;28;20322;-70
2023/05/31 09:37:24;;;;;;;;;;;16.80;81.70;;;;;;5031815;28;19976;-71
2023/05/31 09:39:54;;;;;;;;;;;16.80;81.50;;;;;;5010315;28;19925;-71
2023/05/31 09:42:21;;;;;;;;;;;16.90;81.40;;;;;;5032449;28;19983;-71
2023/05/31 09:44:48;;;;;;;;;;;16.80;81.40;;;;;;5030695;28;19925;-72
2023/05/31 09:47:15;;;;;;;;;;;16.90;81.40;;;;;;5029397;28;20020;-71
2023/05/31 09:49:43;;;;;;;;;;;16.90;81.50;;;;;;5014395;28;19929;-71
2023/05/31 09:52:14;;;;;;;;;;;16.90;81.30;;;;;;5012554;28;20363;-71
2023/05/31 09:54:41;;;;;;;;;;;16.90;81.00;;;;;;5028720;28;20501;-71
2023/05/31 09:57:14;;;;;;;;;;;17.00;81.00;;;;;;5026837;28;19987;-72
2023/05/31 09:59:41;;;;;;;;;;;17.00;81.10;;;;;;5030197;28;19925;-71
2023/05/31 10:02:08;;;;;;;;;;;17.00;80.70;;;;;;5030766;28;19925;-72
2023/05/31 10:04:35;;;;;;;;;;;17.00;80.10;;;;;;5027973;28;19929;-71
2023/05/31 10:07:03;;;;;;;;;;;17.00;80.00;;;;;;5031609;28;20307;-72
2023/05/31 10:09:32;;;;;;;;;;;17.10;80.30;;;;;;5032051;28;19953;-71
2023/05/31 10:12:00;;;;;;;;;;;17.10;80.60;;;;;;5031532;28;19983;-72
2023/05/31 10:14:30;;;;;;;;;;;17.10;80.60;;;;;;5028530;28;20358;-71
2023/05/31 10:16:59;;;;;;;;;;;17.10;80.60;;;;;;5032359;28;19972;-72
2023/05/31 10:19:28;;;;;;;;;;;17.20;80.80;;;;;;5031938;28;20303;-72
2023/05/31 10:21:57;;;;;;;;;;;17.20;80.70;;;;;;5011027;28;19960;-72
2023/05/31 10:24:26;;;;;;;;;;;17.20;80.60;;;;;;5030840;28;19999;-71
2023/05/31 10:26:57;;;;;;;;;;;17.20;80.40;;;;;;5012277;28;19988;-72
2023/05/31 10:29:27;;;;;;;;;;;17.20;80.30;;;;;;5029825;28;19929;-72
2023/05/31 10:31:56;;;;;;;;;;;17.30;80.30;;;;;;5028846;28;19933;-72
2023/05/31 10:34:23;;;;;;;;;;;17.30;80.30;;;;;;5028278;28;20449;-72
2023/05/31 10:36:51;;;;;;;;;;;17.40;80.50;;;;;;5030514;28;19979;-72
2023/05/31 10:39:21;;;;;;;;;;;17.50;80.10;;;;;;5031177;28;20020;-70
2023/05/31 10:41:51;;;;;;;;;;;17.60;79.30;;;;;;5026392;28;19925;-70
2023/05/31 10:44:20;;;;;;;;;;;17.60;79.80;;;;;;5030879;28;19932;-70
2023/05/31 10:46:49;;;;;;;;;;;17.70;79.40;;;;;;5029749;28;19980;-70
2023/05/31 10:49:16;;;;;;;;;;;17.80;79.70;;;;;;5027179;28;19956;-71
2023/05/31 10:51:45;;;;;;;;;;;17.80;79.70;;;;;;5029558;28;19968;-70
2023/05/31 10:54:18;;;;;;;;;;;17.90;79.50;;;;;;5030034;28;19933;-69
2023/05/31 10:56:52;;;;;;;;;;;18.00;79.90;;;;;;5027552;28;20439;-70
2023/05/31 10:59:20;;;;;;;;;;;18.10;79.20;;;;;;5025503;28;20607;-69
2023/05/31 11:01:47;;;;;;;;;;;18.10;79.80;;;;;;5029339;28;19932;-70
2023/05/31 11:04:21;;;;;;;;;;;18.30;78.90;;;;;;5028857;28;20458;-70
2023/05/31 11:06:48;;;;;;;;;;;18.40;79.10;;;;;;5019611;28;20471;-70
2023/05/31 11:09:16;;;;;;;;;;;18.40;78.30;;;;;;5030843;28;20388;-70
2023/05/31 11:11:46;;;;;;;;;;;18.30;78.40;;;;;;5012097;28;19925;-71
2023/05/31 11:14:29;;;;;;;;;;;18.30;79.20;;;;;;5029295;28;19932;-72
2023/05/31 11:17:15;;;;;;;;;;;18.20;78.60;;;;;;5027318;28;19953;-71
2023/05/31 11:19:43;;;;;;;;;;;18.30;78.50;;;;;;5029111;28;19933;-72
2023/05/31 11:22:11;;;;;;;;;;;18.40;79.00;;;;;;5028897;28;20319;-72
2023/05/31 11:24:39;;;;;;;;;;;18.50;78.70;;;;;;5029596;28;19957;-72
2023/05/31 11:27:06;;;;;;;;;;;18.50;78.60;;;;;;5028090;28;19980;-72
2023/05/31 11:29:52;;;;;;;;;;;18.50;77.50;;;;;;5030035;28;19932;-72
2023/05/31 11:32:20;;;;;;;;;;;18.50;78.60;;;;;;5026915;28;19929;-72
2023/05/31 11:34:53;;;;;;;;;;;18.50;77.60;;;;;;5025556;28;20019;-72
2023/05/31 11:37:21;;;;;;;;;;;18.50;77.80;;;;;;5029001;28;19972;-71
2023/05/31 11:39:48;;;;;;;;;;;;;;;;;;5030471;28;19928;-72
2023/05/31 11:42:15;;;;;;;;;;;18.70;76.80;;;;;;5025514;28;19925;-72
2023/05/31 11:44:42;;;;;;;;;;;18.90;77.40;;;;;;5029354;28;19948;-71
2023/05/31 11:47:10;;;;;;;;;;;19.00;77.40;;;;;;5029033;28;20363;-72
2023/05/31 11:49:39;;;;;;;;;;;18.90;77.20;;;;;;5026448;28;19933;-71
2023/05/31 11:52:06;;;;;;;;;;;19.00;77.40;;;;;;5028403;28;19977;-71
2023/05/31 11:54:34;;;;;;;;;;;19.20;76.90;;;;;;5029353;28;20011;-71
2023/05/31 11:57:03;;;;;;;;;;;19.40;76.30;;;;;;5029565;28;19925;-72
2023/05/31 11:59:33;;;;;;;;;;;;;;;;;;5021523;28;19933;-72
2023/05/31 12:02:03;;;;;;;;;;;19.70;75.10;;;;;;5028123;28;20277;-72
2023/05/31 12:04:35;;;;;;;;;;;19.70;75.90;;;;;;5028971;28;20446;-72
2023/05/31 12:07:04;;;;;;;;;;;20.10;73.50;;;;;;5018653;28;19925;-71
2023/05/31 12:09:30;;;;;;;;;;;20.30;74.60;;;;;;5025796;28;20360;-71
2023/05/31 12:11:57;;;;;;;;;;;20.20;73.30;;;;;;5029353;28;20023;-71
2023/05/31 12:14:25;;;;;;;;;;;20.40;73.30;;;;;;5003669;28;19980;-71
2023/05/31 12:16:52;;;;;;;;;;;20.70;73.50;;;;;;5020266;28;19929;-71
2023/05/31 12:19:19;;;;;;;;;;;20.80;72.80;;;;;;5026180;28;19940;-71
2023/05/31 12:21:46;;;;;;;;;;;21.20;73.10;;;;;;5029395;28;19932;-71
2023/05/31 12:24:15;;;;;;;;;;;21.00;71.30;;;;;;5011103;28;19925;-71
2023/05/31 12:26:43;;;;;;;;;;;21.10;72.20;;;;;;5022698;28;20575;-71
2023/05/31 12:29:10;;;;;;;;;;;21.30;71.90;;;;;;5025479;28;19933;-72
2023/05/31 12:31:38;;;;;;;;;;;21.90;71.90;;;;;;5012038;28;19967;-71
2023/05/31 12:34:09;;;;;;;;;;;22.00;72.30;;;;;;5028640;28;19929;-71
2023/05/31 12:36:43;;;;;;;;;;;22.10;70.60;;;;;;5025080;28;20020;-72
2023/05/31 12:39:11;;;;;;;;;;;21.80;69.90;;;;;;5010668;28;19936;-72
2023/05/31 12:41:42;;;;;;;;;;;21.60;70.10;;;;;;5029095;28;19929;-71
2023/05/31 12:44:09;;;;;;;;;;;21.80;70.50;;;;;;5028068;28;20435;-72
2023/05/31 12:46:39;;;;;;;;;;;21.90;70.20;;;;;;5027483;28;20366;-71
2023/05/31 12:49:13;;;;;;;;;;;22.10;70.00;;;;;;5028747;28;19932;-71
2023/05/31 12:51:40;;;;;;;;;;;22.30;70.10;;;;;;5028580;28;19957;-72
2023/05/31 12:54:10;;;;;;;;;;;22.30;68.40;;;;;;5024281;28;20315;-72
2023/05/31 12:56:37;;;;;;;;;;;22.50;68.50;;;;;;5024466;28;19929;-70
2023/05/31 12:59:05;;;;;;;;;;;22.30;67.70;;;;;;5010414;28;19925;-70
2023/05/31 13:01:33;;;;;;;;;;;22.30;68.30;;;;;;5015177;28;19932;-70
2023/05/31 13:04:01;;;;;;;;;;;22.40;68.20;;;;;;5029171;28;20347;-70
2023/05/31 13:06:27;;;;;;;;;;;22.70;67.40;;;;;;5032325;28;20683;-71
2023/05/31 13:08:54;;;;;;;;;;;22.70;67.50;;;;;;5032763;28;20384;-70
2023/05/31 13:11:22;;;;;;;;;;;;;;;;;;5014963;28;19925;-70
2023/05/31 13:13:49;;;;;;;;;;;23.20;65.60;;;;;;5029892;28;19948;-70
2023/05/31 13:16:18;;;;;;;;;;;23.30;66.30;;;;;;5006620;28;19925;-70
2023/05/31 13:18:44;;;;;;;;;;;23.30;65.90;;;;;;5028670;28;19925;-70
2023/05/31 13:21:11;;;;;;;;;;;23.20;65.60;;;;;;5028821;28;21276;-70
2023/05/31 13:23:38;;;;;;;;;;;22.90;65.10;;;;;;5029849;28;19929;-70
2023/05/31 13:26:05;;;;;;;;;;;22.80;65.10;;;;;;5032198;28;20458;-70
2023/05/31 13:28:32;;;;;;;;;;;22.90;66.20;;;;;;5031310;28;19955;-70
2023/05/31 13:30:58;;;;;;;;;;;23.00;66.40;;;;;;5029185;28;19964;-70
2023/05/31 13:33:28;;;;;;;;;;;23.10;66.50;;;;;;5028847;28;19960;-70
2023/05/31 13:35:56;;;;;;;;;;;23.00;65.50;;;;;;5032461;28;20312;-70
2023/05/31 13:38:23;;;;;;;;;;;23.00;65.30;;;;;;5031552;28;19929;-70
2023/05/31 13:40:50;;;;;;;;;;;23.10;64.50;;;;;;5029307;28;19939;-70
2023/05/31 13:43:18;;;;;;;;;;;23.20;66.20;;;;;;5013299;28;19925;-70
2023/05/31 13:45:44;;;;;;;;;;;23.10;64.20;;;;;;5031373;28;19925;-70
2023/05/31 13:48:13;;;;;;;;;;;23.20;65.60;;;;;;5022911;28;19960;-70
2023/05/31 13:50:41;;;;;;;;;;;23.10;64.70;;;;;;5028132;28;19979;-70
2023/05/31 13:53:08;;;;;;;;;;;23.10;64.00;;;;;;5030994;28;20438;-70
2023/05/31 13:55:35;;;;;;;;;;;23.10;64.30;;;;;;5031460;28;20519;-70
2023/05/31 13:58:03;;;;;;;;;;;23.10;64.80;;;;;;5028325;28;20434;-71
2023/05/31 14:00:30;;;;;;;;;;;23.10;64.20;;;;;;5030862;28;19944;-71
2023/05/31 14:02:57;;;;;;;;;;;23.20;64.70;;;;;;5012947;28;19925;-71
2023/05/31 14:05:25;;;;;;;;;;;23.30;64.30;;;;;;5025530;28;19925;-71
2023/05/31 14:07:54;;;;;;;;;;;23.20;63.30;;;;;;5027772;28;20589;-70
2023/05/31 14:10:21;;;;;;;;;;;23.10;63.90;;;;;;5029726;28;19972;-70
2023/05/31 14:12:48;;;;;;;;;;;23.00;63.90;;;;;;5030986;28;19988;-70
2023/05/31 14:15:15;;;;;;;;;;;23.00;63.40;;;;;;5027466;28;20319;-71
2023/05/31 14:17:42;;;;;;;;;;;22.90;62.40;;;;;;5030767;28;19925;-70
2023/05/31 14:20:09;;;;;;;;;;;23.00;64.70;;;;;;5030947;28;20427;-70
2023/05/31 14:22:36;;;;;;;;;;;23.00;62.50;;;;;;5031155;28;19940;-70
2023/05/31 14:25:05;;;;;;;;;;;23.20;62.30;;;;;;5026344;28;19964;-70
2023/05/31 14:27:31;;;;;;;;;;;23.10;62.70;;;;;;5030121;28;19929;-70